Time;durP1;ratioP1;P1;durP2;ratioP2;P2;SDS_P1;SDS_P2;PMS_P1;PMS_P2;Temp;Humidity;BMP_temperature;BMP_pressure;BME280_temperature;BME280_humidity;BME280_pressure;Samples;Min_cycle;Max_cycle;Signal;HPM_P1;HPM_P2
2021/11/02 00:02:00;;;;;;;1.15;0.68;;;;;;;8.10;100.00;99765.97;6296599;28;20049;-72
2021/11/02 00:05:01;;;;;;;0.40;0.40;;;;;;;8.04;100.00;99766.34;6296160;28;20044;-72
2021/11/02 00:08:03;;;;;;;1.20;0.60;;;;;;;8.01;100.00;99766.50;6296323;28;20059;-72
2021/11/02 00:11:06;;;;;;;2.33;0.88;;;;;;;7.98;100.00;99756.22;6296363;28;20044;-72
2021/11/02 00:14:13;;;;;;;1.65;0.47;;;;;;;7.96;100.00;99758.09;6296197;28;20488;-72
2021/11/02 00:17:18;;;;;;;2.42;0.90;;;;;;;7.92;100.00;99764.44;6296175;28;20103;-71
2021/11/02 00:20:20;;;;;;;0.52;0.50;;;;;;;7.84;100.00;99764.03;6296303;28;20045;-72
2021/11/02 00:23:21;;;;;;;2.58;0.80;;;;;;;7.81;100.00;99762.44;6296073;28;20056;-72
2021/11/02 00:26:24;;;;;;;2.83;1.00;;;;;;;7.77;100.00;99767.94;6294593;28;20057;-72
2021/11/02 00:29:26;;;;;;;2.28;0.90;;;;;;;7.70;100.00;99763.97;6296020;28;20052;-72
2021/11/02 00:32:28;;;;;;;0.85;0.52;;;;;;;7.60;100.00;99768.91;6293955;28;20053;-72
2021/11/02 00:35:31;;;;;;;2.20;0.70;;;;;;;7.63;100.00;99763.50;6295852;28;20052;-72
2021/11/02 00:38:32;;;;;;;0.63;0.52;;;;;;;7.59;100.00;99760.22;6296141;28;20048;-71
2021/11/02 00:41:35;;;;;;;1.58;0.98;;;;;;;7.56;100.00;99756.91;6298710;28;20052;-71
2021/11/02 00:44:37;;;;;;;2.35;1.38;;;;;;;7.53;100.00;99757.94;6301024;28;20044;-72
2021/11/02 00:47:39;;;;;;;1.83;1.30;;;;;;;7.48;100.00;99749.50;6300832;28;20393;-71
2021/11/02 00:50:44;;;;;;;3.00;0.50;;;;;;;7.45;100.00;99743.59;6300762;28;20067;-72
2021/11/02 00:53:45;;;;;;;1.05;0.70;;;;;;;7.39;100.00;99744.78;6300677;28;20048;-72
2021/11/02 00:56:48;;;;;;;1.45;0.57;;;;;;;7.34;100.00;99741.59;6298559;28;20052;-72
2021/11/02 00:59:49;;;;;;;5.13;1.00;;;;;;;7.29;100.00;99741.03;6300841;28;20045;-71
2021/11/02 01:02:51;;;;;;;3.03;0.57;;;;;;;7.24;100.00;99745.66;6300498;28;20062;-71
2021/11/02 01:05:52;;;;;;;1.33;0.80;;;;;;;7.16;100.00;99745.25;6300364;28;20051;-74
2021/11/02 01:08:54;;;;;;;0.82;0.60;;;;;;;7.10;100.00;99752.50;6300119;28;20470;-72
2021/11/02 01:11:56;;;;;;;0.57;0.57;;;;;;;7.06;100.00;99742.28;6300432;28;20056;-73
2021/11/02 01:14:58;;;;;;;2.05;0.70;;;;;;;7.00;100.00;99740.88;6299972;28;20067;-73
2021/11/02 01:17:59;;;;;;;0.80;0.65;;;;;;;6.96;100.00;99738.50;6300111;28;20048;-73
2021/11/02 01:21:02;;;;;;;2.50;0.80;;;;;;;6.92;100.00;99744.81;6300065;28;20048;-73
2021/11/02 01:24:04;;;;;;;1.42;0.70;;;;;;;6.87;100.00;99747.69;6299963;28;20052;-71
2021/11/02 01:27:07;;;;;;;0.80;0.65;;;;;;;6.83;100.00;99743.53;6297933;28;20048;-72
2021/11/02 01:30:10;;;;;;;1.70;0.90;;;;;;;6.82;100.00;99741.88;6299803;28;20044;-72
2021/11/02 01:33:12;;;;;;;0.30;0.30;;;;;;;6.81;100.00;99748.00;6299967;28;20055;-71
2021/11/02 01:36:13;;;;;;;3.15;0.57;;;;;;;6.76;100.00;99743.03;6299572;28;20053;-71
2021/11/02 01:39:14;;;;;;;0.90;0.63;;;;;;;6.73;100.00;99743.22;6299670;28;20049;-73
2021/11/02 01:42:18;;;;;;;1.40;0.47;;;;;;;6.67;100.00;99747.91;6299687;28;20091;-72
2021/11/02 01:45:21;;;;;;;1.30;0.90;;;;;;;6.66;100.00;99733.16;6299432;28;20186;-72
2021/11/02 01:48:25;;;;;;;6.68;0.98;;;;;;;6.63;100.00;99741.16;6299474;28;20055;-72
2021/11/02 01:51:29;;;;;;;8.27;0.77;;;;;;;6.57;100.00;99724.88;6299039;28;20518;-72
2021/11/02 01:54:31;;;;;;;1.20;0.68;;;;;;;6.55;100.00;99728.53;6299101;28;20550;-72
2021/11/02 01:57:34;;;;;;;1.33;0.60;;;;;;;6.52;100.00;99733.91;6297712;28;20094;-71
2021/11/02 02:00:36;;;;;;;1.35;0.60;;;;;;;6.47;100.00;99735.91;6299160;28;20491;-73
2021/11/02 02:03:45;;;;;;;3.55;0.63;;;;;;;6.40;100.00;99734.53;6299185;28;20182;-72
2021/11/02 02:06:57;;;;;;;1.27;0.93;;;;;;;6.39;100.00;99727.63;6299004;28;20055;-73
2021/11/02 02:10:06;;;;;;;2.78;1.02;;;;;;;6.41;100.00;99725.81;6299298;28;20056;-73
2021/11/02 02:13:16;;;;;;;0.85;0.65;;;;;;;6.39;100.00;99727.63;6298949;28;20049;-71
2021/11/02 02:16:23;;;;;;;2.42;0.82;;;;;;;6.40;100.00;99717.09;6298909;28;20056;-73
2021/11/02 02:19:40;;;;;;;1.25;0.82;;;;;;;6.38;100.00;99720.75;6298623;28;20060;-73
2021/11/02 02:22:58;;;;;;;0.88;0.60;;;;;;;6.35;100.00;99722.56;6298832;28;20574;-73
2021/11/02 02:26:06;;;;;;;2.38;0.68;;;;;;;6.35;100.00;99721.72;6298443;28;20053;-73
2021/11/02 02:29:09;;;;;;;0.95;0.40;;;;;;;6.33;100.00;99711.38;6296852;28;20051;-73
2021/11/02 02:32:16;;;;;;;1.33;0.57;;;;;;;6.31;100.00;99704.53;6298610;28;20052;-73
2021/11/02 02:35:19;;;;;;;0.60;0.60;;;;;;;6.25;100.00;99703.09;6298316;28;20081;-73
2021/11/02 02:38:22;;;;;;;0.70;0.70;;;;;;;6.24;100.00;99709.25;6298151;28;20085;-72
2021/11/02 02:41:24;;;;;;;0.63;0.55;;;;;;;6.23;100.00;99702.34;6298322;28;20061;-73
2021/11/02 02:44:28;;;;;;;0.65;0.57;;;;;;;6.22;100.00;99697.19;6297844;28;20419;-73
2021/11/02 02:47:30;;;;;;;4.50;0.90;;;;;;;6.23;100.00;99704.13;6298226;28;20045;-73
2021/11/02 02:50:33;;;;;;;1.52;0.70;;;;;;;6.20;100.00;99702.50;6297984;28;20048;-73
2021/11/02 02:53:34;;;;;;;1.27;0.73;;;;;;;6.20;100.00;99701.66;6297622;28;20417;-73
2021/11/02 02:56:41;;;;;;;1.17;0.35;;;;;;;6.16;100.00;99700.13;6297592;28;20048;-73
2021/11/02 02:59:44;;;;;;;2.65;0.82;;;;;;;6.16;100.00;99705.34;6297028;28;20413;-73
2021/11/02 03:02:48;;;;;;;0.60;0.60;;;;;;;6.16;100.00;99707.97;6297101;28;20053;-73
2021/11/02 03:05:50;;;;;;;1.52;0.60;;;;;;;6.14;100.00;99708.06;6297190;28;20052;-73
2021/11/02 03:08:52;;;;;;;6.35;0.60;;;;;;;6.11;100.00;99705.59;6297611;28;20066;-72
2021/11/02 03:11:55;;;;;;;2.38;1.27;;;;;;;6.07;100.00;99702.28;6297488;28;20045;-72
2021/11/02 03:15:12;;;;;;;1.30;0.63;;;;;;;6.08;100.00;99705.75;6297368;28;20044;-72
2021/11/02 03:18:26;;;;;;;1.85;0.90;;;;;;;6.06;100.00;99700.63;6297188;28;20412;-72
2021/11/02 03:45:09;;;;;;;;;;;;;;;6.02;100.00;99712.13;6283553;28;20052;-73
2021/11/02 03:48:32;;;;;;;0.52;0.45;;;;;;;5.99;100.00;99717.47;6283087;28;19920;-72
2021/11/02 03:52:12;;;;;;;0.40;0.40;;;;;;;5.93;100.00;99717.81;6292758;28;20051;-72
2021/11/02 03:55:13;;;;;;;2.13;0.88;;;;;;;5.87;100.00;99723.31;6296381;28;20131;-72
2021/11/02 03:58:18;;;;;;;3.72;0.80;;;;;;;5.83;100.00;99721.78;6296696;28;20048;-73
2021/11/02 04:01:32;;;;;;;0.88;0.70;;;;;;;5.80;100.00;99712.34;6296547;28;20045;-73
2021/11/02 04:25:02;;;;;;;0.75;0.38;;;;;;;5.54;100.00;99715.38;6271176;28;20496;-72
2021/11/02 04:28:20;;;;;;;;;;;;;;;5.51;100.00;99719.00;6273544;28;20428;-70
2021/11/02 04:31:48;;;;;;;1.25;0.90;;;;;;;5.47;100.00;99719.22;6292896;28;19974;-73
2021/11/02 05:08:21;;;;;;;1.77;1.00;;;;;;;5.31;100.00;99733.00;6270747;28;20049;-72
2021/11/02 05:48:35;;;;;;;1.40;1.00;;;;;;;5.41;100.00;99742.97;6253365;28;20044;-67
2021/11/02 05:55:09;;;;;;;5.20;1.20;;;;;;;5.45;100.00;99741.88;6253959;28;20084;-67
2021/11/02 05:58:14;;;;;;;4.07;1.55;;;;;;;5.45;100.00;99736.69;6274818;28;20049;-66
2021/11/02 06:01:27;;;;;;;2.22;1.08;;;;;;;5.45;100.00;99734.94;6274159;28;20049;-66
2021/11/02 06:04:54;;;;;;;1.45;1.20;;;;;;;5.44;100.00;99738.44;6274173;28;20097;-66
2021/11/02 06:08:52;;;;;;;2.10;1.23;;;;;;;5.39;100.00;99743.03;6273486;28;20045;-66
2021/11/02 06:28:43;;;;;;;2.17;1.48;;;;;;;5.56;100.00;99757.88;6272985;28;20499;-65
2021/11/02 06:31:53;;;;;;;1.83;1.35;;;;;;;5.67;100.00;99760.78;6273910;28;20045;-65
2021/11/02 06:35:08;;;;;;;1.83;1.20;;;;;;;5.73;100.00;99760.50;6273614;28;20095;-66
2021/11/02 06:51:49;;;;;;;2.55;1.27;;;;;;;6.03;100.00;99762.50;6247175;28;20050;-65
2021/11/02 06:55:06;;;;;;;6.47;1.33;;;;;;;6.07;100.00;99772.72;6248353;28;20053;-66
2021/11/02 07:18:47;;;;;;;2.17;1.23;;;;;;;6.51;100.00;99782.66;6236153;28;20041;-67
2021/11/02 07:21:58;;;;;;;2.97;1.60;;;;;;;6.58;100.00;99775.31;6272961;28;20045;-67
2021/11/02 07:25:14;;;;;;;5.55;1.80;;;;;;;6.64;100.00;99785.47;6272648;28;20141;-67
2021/11/02 07:28:32;;;;;;;1.63;1.10;;;;;;;6.66;100.00;99782.75;6272699;28;20092;-67
2021/11/02 08:45:56;;;;;;;4.18;2.25;;;;;;;7.46;100.00;99789.75;6270888;28;20045;-67
2021/11/02 08:49:02;;;;;;;3.10;1.92;;;;;;;7.56;100.00;99790.91;6268707;28;20053;-66
2021/11/02 08:52:04;;;;;;;4.32;2.08;;;;;;;7.67;100.00;99785.91;6246115;28;20382;-64
2021/11/02 08:55:08;;;;;;;5.40;2.67;;;;;;;7.78;100.00;99787.94;6246175;28;20045;-66
2021/11/02 08:58:09;;;;;;;2.90;1.80;;;;;;;7.84;100.00;99783.16;6246175;28;20049;-65
2021/11/02 09:01:10;;;;;;;4.13;2.13;;;;;;;7.87;100.00;99775.16;6263586;28;20052;-67
2021/11/02 09:04:16;;;;;;;3.35;1.80;;;;;;;7.96;100.00;99780.78;6275509;28;20056;-64
2021/11/02 09:07:21;;;;;;;2.35;1.08;;;;;;;8.03;100.00;99774.25;6275347;28;20048;-65
2021/11/02 09:10:23;;;;;;;3.53;1.95;;;;;;;8.10;100.00;99786.91;6275534;28;20045;-67
2021/11/02 09:13:25;;;;;;;3.13;1.70;;;;;;;8.17;100.00;99776.06;6274879;28;20059;-67
2021/11/02 09:16:28;;;;;;;2.33;1.60;;;;;;;8.26;100.00;99778.97;6275635;28;20048;-65
2021/11/02 09:19:35;;;;;;;2.03;1.52;;;;;;;8.33;100.00;99777.69;6274843;28;20041;-64
2021/11/02 09:22:36;;;;;;;5.35;1.40;;;;;;;8.39;100.00;99779.13;6259572;28;20103;-64
2021/11/02 09:25:38;;;;;;;3.40;1.60;;;;;;;8.44;100.00;99776.22;6274860;28;20049;-65
2021/11/02 09:28:40;;;;;;;2.33;1.30;;;;;;;8.48;100.00;99773.34;6275116;28;20060;-65
2021/11/02 09:31:42;;;;;;;2.88;1.38;;;;;;;8.47;100.00;99769.03;6275024;28;20535;-65
2021/11/02 09:34:45;;;;;;;6.43;1.50;;;;;;;8.52;100.00;99764.38;6274440;28;20044;-64
2021/11/02 09:38:08;;;;;;;2.17;1.55;;;;;;;8.60;100.00;99772.59;6274882;28;20049;-65
2021/11/02 09:41:46;;;;;;;1.83;1.40;;;;;;;8.65;100.00;99774.94;6274792;28;20041;-64
2021/11/02 09:45:15;;;;;;;2.97;1.33;;;;;;;8.74;100.00;99765.69;6274321;28;20053;-66
2021/11/02 09:48:49;;;;;;;3.42;1.42;;;;;;;8.86;100.00;99767.56;6274710;28;20049;-67
2021/11/02 09:52:19;;;;;;;4.55;1.80;;;;;;;8.99;100.00;99759.75;6274398;28;20452;-65
2021/11/02 09:55:53;;;;;;;5.25;1.85;;;;;;;9.01;100.00;99763.97;6273982;28;20064;-65
2021/11/02 09:59:43;;;;;;;5.22;1.58;;;;;;;9.07;100.00;99760.94;6273193;28;20063;-68
2021/11/02 10:03:15;;;;;;;1.88;1.42;;;;;;;9.18;100.00;99762.91;6268703;28;20064;-69
2021/11/02 10:06:33;;;;;;;2.67;1.30;;;;;;;9.24;100.00;99762.50;6266549;28;20670;-69
2021/11/02 10:09:54;;;;;;;3.80;1.80;;;;;;;9.26;100.00;99754.53;6249070;28;20060;-69
2021/11/02 10:12:59;;;;;;;2.85;1.90;;;;;;;9.27;100.00;99756.25;6267908;28;20058;-69
2021/11/02 10:16:14;;;;;;;1.77;1.20;;;;;;;9.30;100.00;99745.53;6273801;28;20064;-69
2021/11/02 10:19:38;;;;;;;2.38;1.67;;;;;;;9.30;100.00;99748.16;6255533;28;20519;-70
2021/11/02 10:22:55;;;;;;;2.67;1.88;;;;;;;9.24;100.00;99749.41;6273050;28;20619;-70
2021/11/02 10:26:34;;;;;;;4.65;1.70;;;;;;;9.22;100.00;99746.06;6273751;28;20098;-70
2021/11/02 10:30:05;;;;;;;3.50;2.00;;;;;;;9.30;100.00;99746.38;6273736;28;20056;-70
2021/11/02 10:33:17;;;;;;;4.63;1.80;;;;;;;9.43;100.00;99746.44;6273500;28;20132;-71
2021/11/02 10:36:24;;;;;;;3.42;1.70;;;;;;;9.42;100.00;99746.53;6273588;28;20229;-71
2021/11/02 10:39:43;;;;;;;4.57;1.25;;;;;;;9.40;100.00;99739.63;6273322;28;20148;-71
2021/11/02 10:43:02;;;;;;;5.43;1.63;;;;;;;9.49;100.00;99747.81;6272192;28;20071;-71
2021/11/02 10:46:06;;;;;;;3.00;1.65;;;;;;;9.53;100.00;99747.50;6272838;28;20068;-69
2021/11/02 10:49:16;;;;;;;1.15;0.95;;;;;;;9.62;100.00;99743.47;6273034;28;20053;-71
2021/11/02 10:52:26;;;;;;;3.58;1.85;;;;;;;9.73;100.00;99745.41;6271070;28;20049;-72
2021/11/02 10:55:37;;;;;;;2.20;1.52;;;;;;;9.76;100.00;99755.66;6272779;28;20055;-71
2021/11/02 10:58:46;;;;;;;5.28;1.35;;;;;;;9.77;100.00;99747.72;6272778;28;20049;-71
2021/11/02 11:01:48;;;;;;;2.65;1.67;;;;;;;9.82;100.00;99742.16;6272724;28;20044;-68
2021/11/02 11:04:51;;;;;;;2.08;1.58;;;;;;;9.85;100.00;99747.19;6272390;28;20052;-68
2021/11/02 11:07:53;;;;;;;2.03;1.48;;;;;;;9.94;100.00;99750.97;6272644;28;20502;-71
2021/11/02 11:10:58;;;;;;;2.08;1.25;;;;;;;9.98;100.00;99741.97;6272495;28;20553;-71
2021/11/02 11:14:08;;;;;;;1.77;1.38;;;;;;;10.02;100.00;99743.44;6272481;28;20191;-70
2021/11/02 11:17:14;;;;;;;5.00;1.23;;;;;;;10.06;100.00;99745.75;6272444;28;20048;-71
2021/11/02 11:20:17;;;;;;;5.28;1.38;;;;;;;10.13;100.00;99744.41;6314738;22;20049;-70
2021/11/02 11:23:20;;;;;;;1.52;1.25;;;;;;;10.16;100.00;99744.19;6295411;28;20041;-70
2021/11/02 11:26:25;;;;;;;1.30;1.02;;;;;;;10.17;100.00;99745.03;6291737;28;20520;-70
2021/11/02 11:29:28;;;;;;;3.90;1.23;;;;;;;10.15;100.00;99746.94;6297101;28;20495;-70
2021/11/02 11:32:34;;;;;;;1.67;1.13;;;;;;;10.17;100.00;99750.28;6296659;28;20059;-70
2021/11/02 11:35:37;;;;;;;3.85;1.50;;;;;;;10.13;100.00;99747.03;6296914;28;20064;-68
2021/11/02 11:38:42;;;;;;;1.65;1.10;;;;;;;10.11;100.00;99748.91;6296296;28;20048;-70
2021/11/02 11:41:49;;;;;;;4.18;1.25;;;;;;;10.16;100.00;99752.06;6296685;28;20507;-69
2021/11/02 11:44:53;;;;;;;3.67;1.30;;;;;;;10.16;100.00;99749.44;6296579;28;20059;-69
2021/11/02 11:48:06;;;;;;;2.90;1.33;;;;;;;10.21;100.00;99745.66;6296350;28;20045;-70
2021/11/02 11:51:08;;;;;;;1.73;1.45;;;;;;;10.18;100.00;99744.09;6296267;28;20053;-70
2021/11/02 11:54:13;;;;;;;3.72;1.42;;;;;;;10.23;100.00;99739.38;6295975;28;20063;-70
2021/11/02 11:57:16;;;;;;;1.75;1.38;;;;;;;10.24;100.00;99740.22;6297049;28;20059;-70
2021/11/02 12:00:19;;;;;;;1.85;1.52;;;;;;;10.26;100.00;99731.31;6292584;28;20150;-69
2021/11/02 12:03:32;;;;;;;1.67;1.30;;;;;;;10.31;100.00;99731.00;6296306;28;20122;-70
2021/11/02 12:06:39;;;;;;;2.55;1.65;;;;;;;10.32;100.00;99732.69;6296136;28;20059;-69
2021/11/02 12:09:43;;;;;;;3.63;1.73;;;;;;;10.28;99.81;99731.22;6296326;28;20055;-70
2021/11/02 12:12:46;;;;;;;2.63;1.33;;;;;;;10.27;100.00;99737.44;6296098;28;20052;-70
2021/11/02 12:16:08;;;;;;;3.15;1.67;;;;;;;10.28;100.00;99731.22;6296042;28;20059;-70
2021/11/02 12:19:15;;;;;;;5.95;1.48;;;;;;;10.30;99.03;99731.94;6296069;28;20048;-70
2021/11/02 12:22:24;;;;;;;3.08;1.33;;;;;;;10.36;98.70;99723.66;6295548;28;20045;-70
2021/11/02 12:25:34;;;;;;;2.22;1.30;;;;;;;10.38;99.27;99727.00;6295903;28;20045;-69
2021/11/02 12:28:37;;;;;;;2.30;1.70;;;;;;;10.46;100.00;99723.88;6295857;28;20055;-70
2021/11/02 12:31:40;;;;;;;1.50;1.30;;;;;;;10.48;99.54;99722.78;6295670;28;20048;-70
2021/11/02 12:34:46;;;;;;;1.98;1.35;;;;;;;10.53;99.56;99723.31;6297526;28;20094;-69
2021/11/02 12:37:53;;;;;;;1.58;1.15;;;;;;;10.56;98.67;99720.47;6300483;28;20064;-69
2021/11/02 12:40:55;;;;;;;3.83;1.95;;;;;;;10.63;97.26;99708.59;6301121;28;20484;-70
2021/11/02 12:44:05;;;;;;;1.08;0.98;;;;;;;10.69;98.26;99714.38;6300690;28;20055;-70
2021/11/02 12:47:13;;;;;;;5.90;1.90;;;;;;;10.93;97.77;99720.50;6301016;28;20071;-69
2021/11/02 12:50:16;;;;;;;3.22;1.58;;;;;;;11.04;95.65;99715.34;6300687;28;20052;-70
2021/11/02 12:53:19;;;;;;;1.85;1.40;;;;;;;10.98;95.23;99717.56;6300240;28;20146;-70
2021/11/02 12:56:22;;;;;;;2.53;1.63;;;;;;;10.96;97.50;99720.31;6300497;28;20048;-69
2021/11/02 12:59:34;;;;;;;3.08;1.45;;;;;;;11.02;97.95;99711.13;6300608;28;20056;-69
2021/11/02 13:02:39;;;;;;;1.92;1.42;;;;;;;10.98;96.52;99702.63;6300408;28;20051;-69
2021/11/02 13:05:41;;;;;;;2.10;1.60;;;;;;;11.01;96.11;99709.47;6300361;28;20503;-70
2021/11/02 13:08:47;;;;;;;3.05;1.70;;;;;;;10.98;95.47;99713.13;6300297;28;20523;-68
2021/11/02 13:12:00;;;;;;;2.28;1.52;;;;;;;11.01;93.77;99712.09;6300103;28;20040;-69
2021/11/02 13:15:04;;;;;;;1.55;1.38;;;;;;;10.98;92.71;99709.66;6300013;28;20053;-70
2021/11/02 13:18:07;;;;;;;2.38;1.67;;;;;;;10.91;92.49;99711.91;6300203;28;20056;-70
2021/11/02 13:21:24;;;;;;;1.30;1.20;;;;;;;10.91;90.82;99704.84;6299964;28;20480;-70
2021/11/02 13:24:30;;;;;;;2.30;1.60;;;;;;;10.83;91.30;99707.19;6299767;28;20534;-69
2021/11/02 13:27:37;;;;;;;1.80;1.63;;;;;;;10.98;88.48;99704.41;6299906;28;20049;-69
2021/11/02 13:30:40;;;;;;;3.22;1.67;;;;;;;11.24;87.17;99707.78;6300005;28;20053;-70
2021/11/02 13:33:43;;;;;;;2.45;1.27;;;;;;;11.15;88.63;99704.88;6299473;28;20423;-69
2021/11/02 13:36:45;;;;;;;3.78;2.53;;;;;;;11.45;89.22;99687.81;6299917;28;20059;-70
2021/11/02 13:39:51;;;;;;;4.05;1.73;;;;;;;11.67;88.04;99695.81;6299697;28;20053;-69
2021/11/02 13:42:53;;;;;;;4.35;1.50;;;;;;;11.96;88.38;99703.31;6299342;28;20048;-70
2021/11/02 13:45:54;;;;;;;0.90;0.90;;;;;;;12.06;85.34;99698.19;6298642;28;20510;-69
2021/11/02 13:48:57;;;;;;;1.30;1.20;;;;;;;11.97;84.22;99697.09;6296208;28;20411;-68
2021/11/02 13:51:59;;;;;;;4.50;1.50;;;;;;;11.88;83.77;99701.25;6290894;28;20051;-69
2021/11/02 13:55:01;;;;;;;1.10;1.00;;;;;;;11.67;84.68;99705.47;6299212;28;20071;-68
2021/11/02 13:58:02;;;;;;;1.33;1.02;;;;;;;11.54;87.23;99702.94;6299323;28;20488;-68
2021/11/02 14:01:06;;;;;;;1.23;1.13;;;;;;;11.46;85.20;99702.66;6299182;28;20059;-68
2021/11/02 14:04:13;;;;;;;1.80;1.00;;;;;;;11.40;86.34;99711.00;6298966;28;20170;-68
2021/11/02 14:07:16;;;;;;;1.88;1.15;;;;;;;11.38;84.68;99718.16;6298759;28;20055;-68
2021/11/02 14:10:19;;;;;;;1.05;0.98;;;;;;;11.25;84.08;99715.56;6299067;28;20045;-68
2021/11/02 14:13:43;;;;;;;2.40;1.27;;;;;;;11.05;85.38;99713.56;6298424;28;20127;-68
2021/11/02 14:16:45;;;;;;;2.25;1.60;;;;;;;10.93;86.44;99710.00;6298894;28;20053;-66
2021/11/02 14:19:49;;;;;;;2.28;1.80;;;;;;;10.89;86.80;99713.78;6298545;28;20052;-66
2021/11/02 14:22:52;;;;;;;2.08;1.38;;;;;;;10.85;88.46;99712.31;6298484;28;20414;-66
2021/11/02 14:26:19;;;;;;;1.85;1.63;;;;;;;10.76;89.12;99718.22;6298276;28;20041;-66
2021/11/02 14:29:47;;;;;;;1.40;0.80;;;;;;;10.74;89.12;99712.25;6298551;28;20491;-66
2021/11/02 14:32:51;;;;;;;3.63;1.07;;;;;;;10.72;90.07;99716.75;6298662;28;20055;-66
2021/11/02 14:35:55;;;;;;;1.83;1.30;;;;;;;10.65;91.07;99716.38;6298115;28;20331;-66
2021/11/02 14:38:57;;;;;;;1.52;1.27;;;;;;;10.64;91.01;99720.78;6298332;28;20404;-66
2021/11/02 14:41:58;;;;;;;2.20;1.50;;;;;;;10.62;92.20;99724.47;6297888;28;20044;-66
2021/11/02 14:44:59;;;;;;;1.98;1.30;;;;;;;10.58;93.56;99712.47;6298007;28;20084;-67
2021/11/02 14:48:47;;;;;;;1.63;1.38;;;;;;;10.49;94.85;99715.75;6298097;28;20063;-67
2021/11/02 14:51:56;;;;;;;1.48;1.38;;;;;;;10.40;95.63;99719.84;6298014;28;20446;-67
2021/11/02 14:54:58;;;;;;;1.45;1.30;;;;;;;10.34;96.13;99720.28;6297601;28;20055;-67
2021/11/02 14:57:59;;;;;;;4.90;1.60;;;;;;;10.28;97.91;99718.94;6296933;28;20053;-68
2021/11/02 15:01:01;;;;;;;1.90;1.33;;;;;;;10.28;97.06;99721.56;6297564;28;20056;-67
2021/11/02 15:04:04;;;;;;;4.07;1.50;;;;;;;10.25;98.54;99721.75;6297595;28;20052;-67
2021/11/02 15:07:08;;;;;;;1.75;1.48;;;;;;;10.17;99.00;99724.03;6297739;28;20052;-68
2021/11/02 15:10:12;;;;;;;3.10;1.58;;;;;;;10.11;99.70;99721.81;6297404;28;20507;-69
2021/11/02 15:13:20;;;;;;;2.22;1.80;;;;;;;10.04;100.00;99738.94;6295128;28;20051;-69
2021/11/02 15:16:23;;;;;;;2.38;1.70;;;;;;;9.98;100.00;99731.47;6297353;28;20049;-69
2021/11/02 15:19:26;;;;;;;4.20;1.70;;;;;;;9.91;100.00;99733.69;6296959;28;20044;-68
2021/11/02 15:22:30;;;;;;;4.43;1.80;;;;;;;9.87;100.00;99732.19;6296876;28;20484;-69
2021/11/02 15:25:32;;;;;;;2.58;1.83;;;;;;;9.84;100.00;99737.63;6297086;28;20117;-68
2021/11/02 15:28:40;;;;;;;5.20;1.80;;;;;;;9.80;100.00;99731.75;6296820;28;20051;-68
2021/11/02 15:31:53;;;;;;;3.08;2.20;;;;;;;9.75;100.00;99725.97;6297199;28;20048;-68
2021/11/02 15:34:56;;;;;;;2.75;1.60;;;;;;;9.66;100.00;99724.78;6295946;28;20507;-68
2021/11/02 15:38:01;;;;;;;2.10;1.75;;;;;;;9.58;100.00;99724.47;6296942;28;20123;-68
2021/11/02 15:41:17;;;;;;;3.53;1.73;;;;;;;9.47;100.00;99729.56;6288700;28;20480;-69
2021/11/02 15:44:18;;;;;;;3.38;2.08;;;;;;;9.37;100.00;99729.31;6296528;28;20040;-69
2021/11/02 15:47:21;;;;;;;3.13;2.10;;;;;;;9.27;100.00;99727.41;6296501;28;20423;-68
2021/11/02 15:50:24;;;;;;;2.97;2.13;;;;;;;9.17;100.00;99728.91;6296671;28;20076;-68
2021/11/02 15:53:29;;;;;;;3.00;2.33;;;;;;;9.07;100.00;99726.03;6296414;28;20051;-68
2021/11/02 15:56:30;;;;;;;3.28;2.45;;;;;;;8.98;100.00;99727.47;6296629;28;20049;-68
2021/11/02 15:59:31;;;;;;;4.03;2.08;;;;;;;8.89;100.00;99723.63;6296477;28;20052;-67
2021/11/02 16:02:37;;;;;;;4.13;2.17;;;;;;;8.81;100.00;99725.91;6296298;28;20407;-69
2021/11/02 16:05:42;;;;;;;1.90;1.70;;;;;;;8.75;100.00;99736.75;6296119;28;20055;-68
2021/11/02 16:08:58;;;;;;;2.42;1.88;;;;;;;8.66;100.00;99731.25;6296117;28;20102;-69
2021/11/02 16:12:09;;;;;;;2.35;1.80;;;;;;;8.60;100.00;99735.94;6295867;28;20048;-70
2021/11/02 16:15:15;;;;;;;4.25;2.17;;;;;;;8.54;100.00;99738.94;6294874;28;20063;-69
2021/11/02 16:18:18;;;;;;;5.63;2.35;;;;;;;8.48;100.00;99741.06;6290301;28;20087;-71
2021/11/02 16:21:23;;;;;;;4.25;2.33;;;;;;;8.41;100.00;99735.38;6295835;28;20050;-73
2021/11/02 16:24:25;;;;;;;4.13;2.47;;;;;;;8.35;100.00;99740.94;6295831;28;20051;-71
2021/11/02 16:27:27;;;;;;;4.68;2.33;;;;;;;8.29;100.00;99741.31;6296113;28;20071;-70
2021/11/02 16:30:34;;;;;;;6.40;3.20;;;;;;;8.25;100.00;99735.41;6290089;28;20056;-72
2021/11/02 16:33:38;;;;;;;8.25;3.15;;;;;;;8.19;100.00;99732.34;6295165;28;20045;-71
2021/11/02 16:36:40;;;;;;;7.07;3.40;;;;;;;8.15;100.00;99739.53;6295808;28;20052;-71
2021/11/02 16:39:42;;;;;;;9.27;3.72;;;;;;;8.10;100.00;99736.34;6294718;28;20530;-71
2021/11/02 16:42:52;;;;;;;4.55;2.90;;;;;;;8.05;100.00;99739.22;6295569;28;20055;-71
2021/11/02 16:45:53;;;;;;;8.80;3.90;;;;;;;7.99;100.00;99747.41;6295520;28;20045;-71
2021/11/02 16:49:01;;;;;;;12.40;4.43;;;;;;;7.94;100.00;99744.25;6296075;28;20504;-71
2021/11/02 16:52:06;;;;;;;8.70;4.03;;;;;;;7.86;100.00;99736.84;6295847;28;20052;-71
2021/11/02 16:55:10;;;;;;;4.32;2.58;;;;;;;7.81;100.00;99738.91;6295783;28;20131;-71
2021/11/02 16:58:34;;;;;;;5.05;3.63;;;;;;;7.78;100.00;99735.63;6295959;28;20526;-71
2021/11/02 17:01:35;;;;;;;8.70;3.45;;;;;;;7.72;100.00;99741.19;6289601;28;20044;-71
2021/11/02 17:04:38;;;;;;;8.32;4.43;;;;;;;7.67;100.00;99738.00;6295381;28;20609;-71
2021/11/02 17:07:42;;;;;;;9.30;3.72;;;;;;;7.62;100.00;99736.47;6295929;28;20058;-71
2021/11/02 17:10:50;;;;;;;10.40;3.13;;;;;;;7.59;100.00;99743.69;6295697;28;20052;-71
2021/11/02 17:13:51;;;;;;;10.15;4.00;;;;;;;7.57;100.00;99746.38;6295414;28;20056;-71
2021/11/02 17:16:56;;;;;;;5.55;3.15;;;;;;;7.55;100.00;99737.78;6295508;28;20450;-71
2021/11/02 17:19:57;;;;;;;6.07;3.90;;;;;;;7.53;100.00;99757.09;6337357;22;20523;-71
2021/11/02 17:22:59;;;;;;;6.22;3.80;;;;;;;7.50;100.00;99754.66;6273991;28;20053;-71
2021/11/02 17:26:03;;;;;;;4.55;2.95;;;;;;;7.48;100.00;99756.50;6275091;28;20434;-71
2021/11/02 17:29:06;;;;;;;4.68;2.78;;;;;;;7.44;100.00;99755.00;6272467;28;20076;-70
2021/11/02 17:32:08;;;;;;;8.80;3.28;;;;;;;7.44;100.00;99755.00;6250693;28;20045;-71
2021/11/02 17:35:10;;;;;;;4.70;3.10;;;;;;;7.40;100.00;99751.69;6250061;28;20053;-71
2021/11/02 17:38:14;;;;;;;6.03;3.83;;;;;;;7.37;100.00;99757.97;6250441;28;20061;-71
2021/11/02 17:41:18;;;;;;;7.63;4.00;;;;;;;7.36;100.00;99764.13;6250143;28;20057;-70
2021/11/02 17:44:20;;;;;;;6.60;3.80;;;;;;;7.34;100.00;99762.50;6249652;28;20409;-71
2021/11/02 17:47:22;;;;;;;8.57;4.18;;;;;;;7.30;100.00;99768.81;6250249;28;20061;-71
2021/11/02 17:50:26;;;;;;;10.18;5.25;;;;;;;7.29;100.00;99764.53;6249762;28;20456;-71
2021/11/02 17:53:28;;;;;;;8.68;4.35;;;;;;;7.27;100.00;99764.63;6249650;28;20120;-71
2021/11/02 17:56:32;;;;;;;11.75;4.68;;;;;;;7.22;100.00;99774.50;6249708;28;20516;-71
2021/11/02 17:59:34;;;;;;;13.23;4.65;;;;;;;7.22;100.00;99784.97;6250419;28;20041;-71
2021/11/02 18:02:36;;;;;;;6.53;3.78;;;;;;;7.22;100.00;99778.84;6249474;28;20053;-70
2021/11/02 18:05:39;;;;;;;5.80;3.55;;;;;;;7.20;100.00;99780.72;6249311;28;20058;-71
2021/11/02 18:08:43;;;;;;;7.07;4.68;;;;;;;7.16;100.00;99790.50;6249379;28;20417;-70
2021/11/02 18:11:46;;;;;;;9.70;4.47;;;;;;;7.12;100.00;99791.59;6249353;28;20053;-71
2021/11/02 18:14:47;;;;;;;10.65;4.18;;;;;;;7.09;100.00;99789.16;6249114;28;20147;-71
2021/11/02 18:17:50;;;;;;;7.47;3.83;;;;;;;7.05;100.00;99791.09;6249358;28;20049;-71
2021/11/02 18:20:55;;;;;;;10.35;4.57;;;;;;;7.01;100.00;99788.72;6249277;28;20060;-71
2021/11/02 18:23:57;;;;;;;9.70;4.50;;;;;;;7.02;100.00;99800.84;6249109;28;20041;-71
2021/11/02 18:27:00;;;;;;;10.43;5.00;;;;;;;6.98;100.00;99794.94;6249328;28;20393;-71
2021/11/02 18:30:02;;;;;;;8.27;3.90;;;;;;;7.00;100.00;99798.34;6250942;28;20488;-70
2021/11/02 18:33:05;;;;;;;9.27;5.50;;;;;;;6.94;100.00;99796.03;6260684;28;20045;-69
2021/11/02 18:36:09;;;;;;;8.32;4.13;;;;;;;6.95;100.00;99802.09;6267488;28;20061;-70
2021/11/02 18:39:11;;;;;;;8.70;4.30;;;;;;;6.93;100.00;99803.97;6259406;28;20045;-70
2021/11/02 18:42:15;;;;;;;11.65;4.90;;;;;;;6.95;100.00;99802.09;6251178;28;20052;-70
2021/11/02 18:45:17;;;;;;;8.18;4.43;;;;;;;6.95;100.00;99805.56;6248200;28;20416;-70